createdAt,value
2017-07-24T00:00:40.858Z,99.90
2017-07-24T00:03:08.418Z,99.90
2017-07-24T00:05:36.796Z,99.90
2017-07-24T00:08:05.649Z,99.90
2017-07-24T00:10:33.221Z,99.90
2017-07-24T00:13:01.493Z,99.90
2017-07-24T00:15:29.777Z,99.90
2017-07-24T00:17:57.579Z,99.90
2017-07-24T00:20:25.105Z,99.90
2017-07-24T00:22:52.641Z,99.90
2017-07-24T00:25:20.193Z,99.90
2017-07-24T00:27:48.020Z,99.90
2017-07-24T00:30:15.514Z,99.90
2017-07-24T00:32:43.053Z,99.90
2017-07-24T00:35:10.552Z,99.90
2017-07-24T00:37:38.133Z,99.90
2017-07-24T00:40:05.626Z,99.90
2017-07-24T00:55:38.042Z,99.90
2017-07-24T00:58:05.549Z,99.90
2017-07-24T01:00:33.900Z,99.90
2017-07-24T01:03:01.453Z,99.90
2017-07-24T01:05:29.035Z,99.90
2017-07-24T01:07:56.858Z,99.90
2017-07-24T01:10:24.425Z,99.90
2017-07-24T01:12:52.176Z,99.90
2017-07-24T01:15:19.688Z,99.90
2017-07-24T01:17:48.093Z,99.90
2017-07-24T01:20:15.621Z,99.90
2017-07-24T01:22:43.433Z,99.90
2017-07-24T01:25:11.505Z,99.90
2017-07-24T01:27:39.120Z,99.90
2017-07-24T01:30:07.693Z,99.90
2017-07-24T01:32:35.404Z,99.90
2017-07-24T01:35:03.150Z,99.90
2017-07-24T01:37:30.730Z,99.90
2017-07-24T01:39:58.921Z,99.90
2017-07-24T01:42:26.496Z,99.90
2017-07-24T01:44:54.036Z,99.90
2017-07-24T01:47:21.554Z,99.90
2017-07-24T01:49:49.078Z,99.90
2017-07-24T01:52:16.583Z,99.90
2017-07-24T01:54:44.121Z,99.90
2017-07-24T01:57:11.830Z,99.90
2017-07-24T01:59:39.734Z,99.90
2017-07-24T02:02:07.541Z,99.90
2017-07-24T02:04:35.069Z,99.90
2017-07-24T02:07:03.149Z,99.90
2017-07-24T02:09:30.929Z,99.90
2017-07-24T02:11:58.496Z,99.90
2017-07-24T02:14:26.129Z,99.90
2017-07-24T02:16:55.121Z,99.90
2017-07-24T02:19:22.893Z,99.90
2017-07-24T02:21:51.349Z,99.90
2017-07-24T02:24:18.916Z,99.90
2017-07-24T02:26:46.792Z,99.90
2017-07-24T02:29:14.644Z,99.90
2017-07-24T02:31:42.924Z,99.90
2017-07-24T02:34:10.937Z,99.90
2017-07-24T02:36:39.309Z,99.90
2017-07-24T02:39:07.608Z,99.90
2017-07-24T02:41:35.113Z,99.90
2017-07-24T02:44:02.960Z,99.90
2017-07-24T02:46:30.505Z,99.90
2017-07-24T02:48:58.021Z,99.90
2017-07-24T02:51:26.301Z,99.90
2017-07-24T02:53:55.501Z,99.90
2017-07-24T02:56:23.824Z,99.90
2017-07-24T02:58:51.393Z,99.90
2017-07-24T03:01:19.902Z,99.90
2017-07-24T03:03:48.491Z,99.90
2017-07-24T03:06:16.754Z,99.90
2017-07-24T03:08:46.288Z,99.90
2017-07-24T03:11:14.066Z,99.90
2017-07-24T03:13:43.812Z,99.90
2017-07-24T03:16:11.561Z,99.90
2017-07-24T03:18:39.057Z,99.90
2017-07-24T03:21:06.580Z,99.90
2017-07-24T03:23:34.107Z,99.90
2017-07-24T03:26:01.681Z,99.90
2017-07-24T03:28:29.536Z,99.90
2017-07-24T03:30:57.105Z,99.90
2017-07-24T03:33:24.809Z,99.90
2017-07-24T03:35:53.170Z,99.90
2017-07-24T03:38:20.974Z,99.90
2017-07-24T03:40:48.468Z,99.90
2017-07-24T03:43:17.350Z,99.90
2017-07-24T03:45:45.056Z,99.90
2017-07-24T03:48:13.365Z,99.90
2017-07-24T03:50:40.865Z,99.90
2017-07-24T03:53:08.474Z,99.90
2017-07-24T03:55:36.037Z,99.90
2017-07-24T03:58:04.221Z,99.90
2017-07-24T04:00:31.860Z,99.90
2017-07-24T04:02:59.517Z,99.90
2017-07-24T04:05:27.033Z,99.90
2017-07-24T04:07:54.613Z,99.90
2017-07-24T04:10:22.952Z,99.90
2017-07-24T04:12:51.097Z,99.90
2017-07-24T04:15:18.609Z,99.90
2017-07-24T04:17:47.423Z,99.90
2017-07-24T04:20:14.940Z,99.90
2017-07-24T04:22:43.029Z,99.90
2017-07-24T04:25:11.405Z,99.90
2017-07-24T04:27:39.665Z,99.90
2017-07-24T04:30:07.278Z,99.90
2017-07-24T04:32:34.869Z,99.90
2017-07-24T04:35:02.866Z,99.90
2017-07-24T04:37:31.280Z,99.90
2017-07-24T04:39:58.798Z,99.90
2017-07-24T04:42:27.713Z,99.90
2017-07-24T04:44:55.302Z,99.90
2017-07-24T04:47:23.046Z,99.90
2017-07-24T04:49:51.328Z,99.90
2017-07-24T04:52:19.191Z,99.90
2017-07-24T04:54:46.701Z,99.90
2017-07-24T04:57:15.044Z,99.90
2017-07-24T04:59:42.545Z,99.90
2017-07-24T05:02:10.044Z,99.90
2017-07-24T05:04:37.749Z,99.90
2017-07-24T05:07:05.273Z,99.90
2017-07-24T05:09:32.840Z,99.90
2017-07-24T05:12:00.365Z,99.90
2017-07-24T05:14:29.048Z,99.90
2017-07-24T05:16:56.840Z,99.90
2017-07-24T05:19:24.586Z,99.90
2017-07-24T05:21:52.230Z,99.90
2017-07-24T05:24:19.944Z,99.90
2017-07-24T05:26:48.382Z,99.90
2017-07-24T05:29:15.957Z,99.90
2017-07-24T05:31:43.608Z,99.90
2017-07-24T05:34:12.060Z,99.90
2017-07-24T05:36:39.946Z,95.20
2017-07-24T05:39:07.656Z,79.00
2017-07-24T05:41:35.964Z,66.30
2017-07-24T05:44:03.629Z,61.60
2017-07-24T05:46:31.201Z,59.70
2017-07-24T05:48:59.048Z,55.10
2017-07-24T05:51:26.573Z,42.90
2017-07-24T05:53:54.333Z,45.50
2017-07-24T05:56:22.072Z,45.90
2017-07-24T05:58:49.664Z,37.70
2017-07-24T06:01:17.328Z,34.10
2017-07-24T06:03:45.950Z,25.90
2017-07-24T06:06:13.459Z,24.00
2017-07-24T06:08:41.061Z,20.80
2017-07-24T06:11:08.585Z,19.10
2017-07-24T06:13:36.466Z,16.80
2017-07-24T06:16:04.285Z,16.90
2017-07-24T06:18:31.802Z,16.30
2017-07-24T06:20:59.513Z,24.10
2017-07-24T06:23:27.129Z,23.30
2017-07-24T06:25:54.707Z,22.70
2017-07-24T06:28:22.265Z,25.10
2017-07-24T06:30:49.760Z,30.00
2017-07-24T06:33:17.604Z,30.10
2017-07-24T06:35:45.163Z,35.20
2017-07-24T06:38:12.846Z,32.80
2017-07-24T06:40:40.402Z,32.30
2017-07-24T06:43:07.906Z,41.50
2017-07-24T06:45:36.241Z,43.80
2017-07-24T06:48:03.849Z,43.80
2017-07-24T06:50:32.137Z,38.60
2017-07-24T06:53:01.061Z,37.80
2017-07-24T06:55:29.024Z,39.60
2017-07-24T06:57:56.588Z,30.40
2017-07-24T07:00:24.423Z,27.70
2017-07-24T07:02:52.297Z,34.80
2017-07-24T07:05:20.044Z,30.30
2017-07-24T07:07:47.569Z,34.80
2017-07-24T07:10:15.735Z,29.60
2017-07-24T07:12:43.256Z,36.20
2017-07-24T07:15:10.851Z,39.90
2017-07-24T07:17:38.368Z,38.40
2017-07-24T07:20:07.034Z,45.60
2017-07-24T07:22:34.661Z,44.40
2017-07-24T07:25:02.274Z,37.80
2017-07-24T07:27:29.945Z,32.30
2017-07-24T07:29:57.820Z,33.10
2017-07-24T07:32:25.362Z,38.90
2017-07-24T07:34:52.896Z,32.90
2017-07-24T07:37:20.425Z,36.30
2017-07-24T07:39:47.958Z,32.40
2017-07-24T07:42:15.558Z,29.10
2017-07-24T07:44:43.553Z,27.30
2017-07-24T07:47:11.098Z,32.40
2017-07-24T07:49:38.620Z,39.60
2017-07-24T07:52:06.888Z,35.60
2017-07-24T07:54:34.411Z,35.50
2017-07-24T07:57:01.936Z,35.10
2017-07-24T07:59:29.456Z,32.20
2017-07-24T08:01:57.794Z,31.20
2017-07-24T08:04:25.437Z,31.90
2017-07-24T08:06:53.526Z,30.80
2017-07-24T08:09:21.057Z,28.80
2017-07-24T08:11:48.792Z,26.70
2017-07-24T08:14:17.463Z,31.70
2017-07-24T08:16:45.241Z,31.70
2017-07-24T08:19:14.308Z,29.90
2017-07-24T08:21:42.250Z,30.00
2017-07-24T08:24:09.909Z,33.70
2017-07-24T08:26:37.680Z,29.30
2017-07-24T08:29:05.234Z,30.40
2017-07-24T08:31:32.736Z,31.60
2017-07-24T08:34:01.048Z,34.80
2017-07-24T08:36:28.615Z,34.20
2017-07-24T08:38:56.141Z,28.40
2017-07-24T08:41:23.686Z,26.50
2017-07-24T08:43:51.972Z,28.20
2017-07-24T08:46:19.481Z,28.20
2017-07-24T08:48:48.848Z,29.20
2017-07-24T08:51:16.479Z,29.50
2017-07-24T08:53:43.995Z,28.90
2017-07-24T08:56:11.499Z,26.60
2017-07-24T08:58:39.017Z,29.70
2017-07-24T09:01:06.697Z,29.80
2017-07-24T09:03:35.096Z,26.00
2017-07-24T09:06:02.636Z,25.90
2017-07-24T09:08:30.316Z,21.50
2017-07-24T09:10:57.996Z,26.00
2017-07-24T09:13:25.759Z,29.70
2017-07-24T09:15:53.339Z,29.10
2017-07-24T09:18:21.454Z,33.60
2017-07-24T09:20:49.012Z,26.30
2017-07-24T09:23:17.238Z,20.00
2017-07-24T09:25:44.755Z,25.90
2017-07-24T09:31:16.941Z,26.50
2017-07-24T09:33:44.723Z,31.10
2017-07-24T09:36:12.483Z,30.00
2017-07-24T09:38:39.987Z,31.60
2017-07-24T09:41:08.236Z,33.60
2017-07-24T09:43:35.743Z,32.10
2017-07-24T09:46:03.231Z,28.90
2017-07-24T09:48:30.719Z,30.60
2017-07-24T09:50:58.560Z,28.90
2017-07-24T09:53:26.148Z,35.80
2017-07-24T09:55:53.648Z,32.00
2017-07-24T09:58:29.566Z,33.40
2017-07-24T10:03:36.592Z,32.20
2017-07-24T10:06:21.369Z,28.10
2017-07-24T10:08:48.887Z,30.30
2017-07-24T10:11:17.159Z,26.50
2017-07-24T10:13:45.117Z,26.60
2017-07-24T10:16:13.498Z,32.70
2017-07-24T10:18:41.028Z,32.80
2017-07-24T10:24:07.303Z,30.50
2017-07-24T10:26:34.819Z,31.60
2017-07-24T10:29:16.810Z,32.30
2017-07-24T10:34:38.007Z,36.40
2017-07-24T10:37:07.454Z,30.30
2017-07-24T10:42:31.557Z,28.30
2017-07-24T10:45:03.233Z,29.70
2017-07-24T10:47:30.888Z,28.60
2017-07-24T10:49:58.511Z,33.10
2017-07-24T10:52:26.119Z,32.50
2017-07-24T10:54:53.985Z,30.80
2017-07-24T10:57:21.602Z,34.90
2017-07-24T10:59:51.401Z,27.80
2017-07-24T11:02:19.968Z,28.90
2017-07-24T11:04:47.541Z,28.90
2017-07-24T11:07:15.080Z,32.40
2017-07-24T11:09:42.621Z,34.70
2017-07-24T11:12:10.129Z,36.10
2017-07-24T11:14:37.648Z,33.10
2017-07-24T11:17:05.149Z,33.90
2017-07-24T11:19:32.670Z,35.90
2017-07-24T11:22:00.174Z,36.00
2017-07-24T11:24:28.481Z,39.30
2017-07-24T11:26:55.985Z,39.20
2017-07-24T11:29:23.476Z,36.70
2017-07-24T11:31:50.992Z,40.90
2017-07-24T11:34:18.493Z,34.30
2017-07-24T11:36:46.005Z,36.40
2017-07-24T11:39:13.505Z,40.50
2017-07-24T11:41:41.025Z,45.30
2017-07-24T11:44:08.659Z,40.70
2017-07-24T11:46:36.989Z,40.30
2017-07-24T11:49:04.489Z,40.10
2017-07-24T11:51:32.009Z,42.00
2017-07-24T11:53:59.512Z,38.70
2017-07-24T11:56:27.041Z,40.00
2017-07-24T11:58:54.544Z,44.40
2017-07-24T12:01:22.065Z,48.40
2017-07-24T12:03:49.569Z,49.20
2017-07-24T12:06:17.093Z,53.30
2017-07-24T12:08:44.613Z,48.30
2017-07-24T12:11:12.116Z,49.00
2017-07-24T12:13:39.636Z,53.40
2017-07-24T12:16:07.133Z,53.50
2017-07-24T12:18:36.602Z,48.00
2017-07-24T12:21:04.175Z,56.50
2017-07-24T12:23:31.704Z,57.70
2017-07-24T12:26:02.964Z,56.30
2017-07-24T12:28:33.952Z,61.80
2017-07-24T12:31:09.222Z,65.10
2017-07-24T12:33:41.812Z,63.70
2017-07-24T12:36:12.413Z,62.60
2017-07-24T12:41:19.415Z,67.20
2017-07-24T12:43:52.211Z,76.90
2017-07-24T12:46:22.570Z,83.70
2017-07-24T12:48:54.974Z,93.80
2017-07-24T12:51:30.231Z,97.30
2017-07-24T12:54:04.862Z,98.70
2017-07-24T12:59:15.807Z,99.90
2017-07-24T13:01:49.753Z,99.90
2017-07-24T13:04:18.103Z,99.90
2017-07-24T13:06:46.000Z,99.90
2017-07-24T13:09:13.911Z,99.90
2017-07-24T13:11:48.897Z,99.90
2017-07-24T13:14:16.707Z,99.90
2017-07-24T13:16:44.962Z,99.90
2017-07-24T13:19:12.442Z,99.90
2017-07-24T13:21:40.711Z,99.90
2017-07-24T13:24:08.959Z,99.90
2017-07-24T13:26:36.700Z,99.90
2017-07-24T13:29:04.459Z,99.90
2017-07-24T13:31:31.963Z,99.90
2017-07-24T13:33:59.442Z,99.90
2017-07-24T13:36:26.955Z,99.90
2017-07-24T13:38:54.451Z,99.90
2017-07-24T13:41:22.248Z,99.90
2017-07-24T13:43:49.732Z,99.90
2017-07-24T13:46:17.467Z,99.90
2017-07-24T13:48:45.224Z,99.90
2017-07-24T13:51:12.707Z,99.90
2017-07-24T13:53:40.216Z,99.90
2017-07-24T13:56:07.699Z,99.90
2017-07-24T13:58:35.199Z,99.90
2017-07-24T14:01:03.455Z,99.90
2017-07-24T14:03:30.959Z,99.90
2017-07-24T14:05:58.438Z,99.90
2017-07-24T14:08:25.987Z,99.90
2017-07-24T14:10:53.470Z,99.90
2017-07-24T14:13:20.960Z,99.90
2017-07-24T14:15:49.233Z,99.90
2017-07-24T14:18:17.490Z,99.90
2017-07-24T14:20:45.778Z,99.90
2017-07-24T14:23:14.036Z,99.90
2017-07-24T14:25:41.535Z,99.90
2017-07-24T14:28:10.147Z,99.90
2017-07-24T14:30:37.649Z,99.90
2017-07-24T14:33:05.904Z,99.90
2017-07-24T14:35:33.403Z,99.90
2017-07-24T14:38:01.187Z,99.90
2017-07-24T14:40:28.692Z,99.90
2017-07-24T14:42:56.943Z,99.90
2017-07-24T14:45:24.447Z,99.90
2017-07-24T14:47:52.235Z,99.90
2017-07-24T14:50:20.000Z,99.90
2017-07-24T14:52:47.492Z,99.90
2017-07-24T14:55:14.975Z,99.90
2017-07-24T14:57:42.494Z,99.90
2017-07-24T15:00:09.983Z,99.90
2017-07-24T15:02:38.271Z,99.90
2017-07-24T15:05:05.764Z,99.90
2017-07-24T15:10:27.008Z,99.90
2017-07-24T15:12:54.522Z,99.90
2017-07-24T15:15:22.013Z,99.90
2017-07-24T15:17:49.526Z,99.90
2017-07-24T15:20:17.015Z,99.90
2017-07-24T15:22:44.787Z,99.90
2017-07-24T15:25:12.304Z,99.90
2017-07-24T15:27:39.847Z,99.90
2017-07-24T15:30:07.495Z,99.90
2017-07-24T15:32:35.986Z,99.90
2017-07-24T15:35:03.523Z,99.90
2017-07-24T15:37:31.807Z,99.90
2017-07-24T15:40:00.272Z,99.90
2017-07-24T15:42:27.762Z,99.90
2017-07-24T15:44:55.504Z,99.90
2017-07-24T15:47:23.000Z,99.90
2017-07-24T15:49:50.867Z,99.90
2017-07-24T15:52:18.628Z,99.90
2017-07-24T15:54:46.139Z,99.90
2017-07-24T15:57:13.667Z,99.90
2017-07-24T15:59:41.172Z,99.90
2017-07-24T16:02:08.706Z,99.90
2017-07-24T16:04:36.228Z,99.90
2017-07-24T16:07:03.742Z,99.90
2017-07-24T16:09:43.743Z,99.90
2017-07-24T16:12:11.311Z,99.90
2017-07-24T16:14:38.806Z,99.90
2017-07-24T16:17:06.320Z,99.90
2017-07-24T16:19:33.812Z,99.90
2017-07-24T16:22:01.608Z,99.90
2017-07-24T16:24:29.119Z,99.90
2017-07-24T16:26:57.644Z,99.90
2017-07-24T16:29:25.408Z,99.90
2017-07-24T16:31:52.898Z,99.90
2017-07-24T16:34:20.424Z,99.90
2017-07-24T16:36:47.928Z,99.90
2017-07-24T16:39:16.587Z,99.90
2017-07-24T16:41:44.094Z,99.90
2017-07-24T16:44:12.133Z,99.90
2017-07-24T16:46:40.146Z,99.90
2017-07-24T16:49:07.679Z,99.90
2017-07-24T16:51:35.407Z,99.90
2017-07-24T16:54:03.071Z,99.90
2017-07-24T16:56:30.764Z,99.90
2017-07-24T16:58:58.484Z,99.90
2017-07-24T17:01:26.220Z,99.90
2017-07-24T17:03:53.714Z,99.90
2017-07-24T17:06:22.208Z,99.90
2017-07-24T17:08:50.682Z,99.90
2017-07-24T17:11:18.190Z,99.90
2017-07-24T17:13:45.899Z,99.90
2017-07-24T17:16:14.187Z,99.90
2017-07-24T17:18:41.675Z,99.90
2017-07-24T17:21:09.160Z,99.90
2017-07-24T17:23:36.667Z,99.90
2017-07-24T17:26:04.162Z,99.90
2017-07-24T17:28:31.670Z,99.90
2017-07-24T17:30:59.380Z,99.90
2017-07-24T17:33:26.889Z,99.90
2017-07-24T17:35:57.248Z,99.90
2017-07-24T17:38:28.477Z,99.90
2017-07-24T17:43:48.511Z,99.90
2017-07-24T17:46:15.995Z,99.90
2017-07-24T17:48:44.291Z,99.90
2017-07-24T17:51:15.072Z,99.90
2017-07-24T18:00:50.515Z,99.90
2017-07-24T18:03:18.087Z,99.90
2017-07-24T18:06:11.585Z,99.90
2017-07-24T18:11:31.100Z,99.90
2017-07-24T18:14:01.367Z,99.90
2017-07-24T18:19:22.835Z,99.90
2017-07-24T18:21:50.617Z,99.90
2017-07-24T18:24:18.685Z,99.90
2017-07-24T18:26:46.268Z,99.90
2017-07-24T18:29:13.751Z,99.90
2017-07-24T18:31:41.244Z,99.90
2017-07-24T18:34:09.540Z,99.90
2017-07-24T18:36:37.045Z,99.90
2017-07-24T18:39:04.559Z,99.90
2017-07-24T18:41:32.051Z,99.90
2017-07-24T18:43:59.563Z,99.90
2017-07-24T18:46:30.136Z,99.90
2017-07-24T18:48:57.711Z,99.90
2017-07-24T18:51:25.219Z,99.90
2017-07-24T18:53:52.974Z,99.90
2017-07-24T18:56:20.532Z,99.90
2017-07-24T18:58:48.074Z,99.90
2017-07-24T19:01:15.630Z,99.90
2017-07-24T19:06:49.158Z,99.90
2017-07-24T19:09:16.647Z,99.90
2017-07-24T19:11:44.160Z,99.90
2017-07-24T19:14:11.669Z,99.90
2017-07-24T19:22:35.519Z,99.90
2017-07-24T19:25:03.117Z,99.90
2017-07-24T19:27:39.010Z,99.90
2017-07-24T19:30:06.880Z,99.90
2017-07-24T19:38:18.074Z,99.90
2017-07-24T19:40:47.780Z,99.90
2017-07-24T19:43:15.378Z,99.90
2017-07-24T19:45:42.948Z,99.90
2017-07-24T19:53:48.345Z,99.90
2017-07-24T20:03:54.607Z,99.90
2017-07-24T20:06:22.119Z,99.90
2017-07-24T20:11:40.844Z,99.90
2017-07-24T20:14:10.113Z,99.90
2017-07-24T20:19:37.027Z,99.90
2017-07-24T20:22:04.563Z,99.90
2017-07-24T20:24:32.074Z,99.90
2017-07-24T20:26:59.809Z,99.90
2017-07-24T20:29:27.330Z,99.90
2017-07-24T20:31:54.839Z,99.90
2017-07-24T20:43:18.913Z,99.90
2017-07-24T20:51:32.079Z,99.90
2017-07-24T20:54:01.149Z,99.90
2017-07-24T20:59:28.363Z,99.90
2017-07-24T21:05:10.980Z,99.90
